Log Lane Village, CO

7:13 PM MDT on September 21, 2014 (GMT -0600)
Fort Morgan | Change Station
CLOSE
Current Station
Personal Weather Station
Location: Fort Morgan, CO
Elevation: 4327 ft
Nearby Weather Stations

Elev 4327 ft 40.24 °N, 103.79 °W | Updated 2 seconds ago

Partly Cloudy
Partly Cloudy
68.9 °F
Feels Like 68.9 °F
N
3.1
Wind Variable Wind from East
Gusts 6.9 mph

Today
High -- | Low -- °F
--% Chance of Precip.
Yesterday
High -- | Low -- °F
Precip. -- in
6:41 AM 6:53 PM
Waning Crescent, 5% visible
Pressure 30.27 in
Visibility 10.0 miles
Clouds Clear
Dew Point 42 °F
Humidity 38%
Rainfall 0.00 in
Snow Depth 0 in , 0 in , 0 in
UV 0.0 out of 12
Pollen 6.60 out of 12
Air Quality Not available.
Flu Activity Not available.
METAR KFMM 220055Z AUTO 09012KT 10SM CLR 18/05 A3027 RMK AO2 T01800050

More Conditions Fewer Conditions

Pressure 30.27 in
Visibility 10.0 miles
Clouds Clear
Dew Point 42 °F
Humidity 38%
Rainfall 0.00 in
Snow Depth 0 in , 0 in , 0 in
UV 0.0 out of 12
Pollen 6.60 out of 12
Air Quality Not available.
Flu Activity Not available.
METAR KFMM 220055Z AUTO 09012KT 10SM CLR 18/05 A3027 RMK AO2 T01800050

More Conditions Fewer Conditions

10-Day Weather Forecast

Almanac

Astronomy

Sep. 21, 2014 Rise Set
Actual Time 6:41 AM MDT 6:53 PM MDT
Civil Twilight 6:14 AM MDT 7:21 PM MDT
Nautical Twilight 5:42 AM MDT 7:52 PM MDT
Astronomical Twilight 5:10 AM MDT 8:25 PM MDT
Moon 4:17 AM MDT (9/21) 5:31 PM MDT (9/21)
Length of Visible Light 13h 06m
Length of Day
12h 12m
Tomorrow will be 2m 38s shorter.
Waning Crescent, 5% of the Moon is Illuminated
Today
Waning Crescent
Sep 24
New
Oct 1
First Quarter
Oct 8
Full
Oct 15
Last Quarter

Today's Extremes

State Highs State Lows

Community

WunderPhotos

Upload Photos

1,755,324 photos uploaded!

WunderBlogs® & News

Nearby

Snow Depth

Station Depth Elevation
Kiln 0 in 9600 ft
Rabbit Ears 0 in 9400 ft
Willow Creek Pass 0 in 9540 ft
Dry Lake 0 in 8400 ft
Apishapa 0 in 10000 ft

Earthquake Activity

City Distance Mag. Time & Date
No recent earthquake activity has been reported nearby.
Minimum magnitude displayed is 2.5.

Coastal Water Temperatures

Place Temperature
No Stations Reporting

Nearby Weather Stations